sensor_id;sensor_type;location;lat;lon;timestamp;P1;durP1;ratioP1;P2;durP2;ratioP2
15342;SDS011;7771;48.478;8.936;2024-01-15T00:00:16;26.27;;;12.37;;
15342;SDS011;7771;48.478;8.936;2024-01-15T00:02:43;25.00;;;10.97;;
15342;SDS011;7771;48.478;8.936;2024-01-15T00:05:10;24.83;;;10.90;;
15342;SDS011;7771;48.478;8.936;2024-01-15T00:07:38;23.43;;;10.40;;
15342;SDS011;7771;48.478;8.936;2024-01-15T00:10:06;23.97;;;10.67;;
15342;SDS011;7771;48.478;8.936;2024-01-15T00:12:32;22.57;;;11.67;;
15342;SDS011;7771;48.478;8.936;2024-01-15T00:15:00;23.03;;;10.40;;
15342;SDS011;7771;48.478;8.936;2024-01-15T00:17:26;21.43;;;9.77;;
15342;SDS011;7771;48.478;8.936;2024-01-15T00:19:54;21.57;;;10.13;;
15342;SDS011;7771;48.478;8.936;2024-01-15T00:22:21;21.73;;;10.43;;
15342;SDS011;7771;48.478;8.936;2024-01-15T00:24:48;24.33;;;10.83;;
15342;SDS011;7771;48.478;8.936;2024-01-15T00:27:15;24.17;;;10.47;;
15342;SDS011;7771;48.478;8.936;2024-01-15T00:29:42;23.87;;;10.93;;
15342;SDS011;7771;48.478;8.936;2024-01-15T00:32:09;21.00;;;10.27;;
15342;SDS011;7771;48.478;8.936;2024-01-15T00:34:35;21.33;;;10.07;;
15342;SDS011;7771;48.478;8.936;2024-01-15T00:37:03;19.70;;;9.13;;
15342;SDS011;7771;48.478;8.936;2024-01-15T00:39:30;24.10;;;10.13;;
15342;SDS011;7771;48.478;8.936;2024-01-15T00:41:59;20.30;;;9.50;;
15342;SDS011;7771;48.478;8.936;2024-01-15T00:44:26;23.83;;;10.93;;
15342;SDS011;7771;48.478;8.936;2024-01-15T00:46:55;21.07;;;9.73;;
15342;SDS011;7771;48.478;8.936;2024-01-15T00:49:21;22.93;;;10.27;;
15342;SDS011;7771;48.478;8.936;2024-01-15T00:51:49;18.83;;;9.80;;
15342;SDS011;7771;48.478;8.936;2024-01-15T00:54:15;20.67;;;9.97;;
15342;SDS011;7771;48.478;8.936;2024-01-15T00:56:44;21.20;;;9.83;;
15342;SDS011;7771;48.478;8.936;2024-01-15T00:59:11;22.20;;;9.60;;
15342;SDS011;7771;48.478;8.936;2024-01-15T01:01:38;22.50;;;9.43;;
15342;SDS011;7771;48.478;8.936;2024-01-15T01:04:05;21.17;;;9.53;;
15342;SDS011;7771;48.478;8.936;2024-01-15T01:06:33;20.23;;;10.33;;
15342;SDS011;7771;48.478;8.936;2024-01-15T01:08:59;24.70;;;10.60;;
15342;SDS011;7771;48.478;8.936;2024-01-15T01:11:26;22.27;;;9.27;;
15342;SDS011;7771;48.478;8.936;2024-01-15T01:13:53;20.13;;;9.83;;
15342;SDS011;7771;48.478;8.936;2024-01-15T01:16:20;19.30;;;9.30;;
15342;SDS011;7771;48.478;8.936;2024-01-15T01:18:47;18.53;;;9.07;;
15342;SDS011;7771;48.478;8.936;2024-01-15T01:21:14;18.40;;;8.70;;
15342;SDS011;7771;48.478;8.936;2024-01-15T01:23:41;21.53;;;9.20;;
15342;SDS011;7771;48.478;8.936;2024-01-15T01:26:08;18.07;;;8.37;;
15342;SDS011;7771;48.478;8.936;2024-01-15T01:28:34;16.13;;;8.37;;
15342;SDS011;7771;48.478;8.936;2024-01-15T01:31:03;22.70;;;8.23;;
15342;SDS011;7771;48.478;8.936;2024-01-15T01:33:29;14.70;;;8.13;;
15342;SDS011;7771;48.478;8.936;2024-01-15T01:35:58;22.27;;;9.90;;
15342;SDS011;7771;48.478;8.936;2024-01-15T01:38:24;21.27;;;8.70;;
15342;SDS011;7771;48.478;8.936;2024-01-15T01:40:52;19.97;;;8.90;;
15342;SDS011;7771;48.478;8.936;2024-01-15T01:43:19;20.87;;;9.20;;
15342;SDS011;7771;48.478;8.936;2024-01-15T01:45:46;14.67;;;7.47;;
15342;SDS011;7771;48.478;8.936;2024-01-15T01:48:14;22.23;;;8.80;;
15342;SDS011;7771;48.478;8.936;2024-01-15T01:50:41;18.77;;;8.43;;
15342;SDS011;7771;48.478;8.936;2024-01-15T01:53:08;16.67;;;8.13;;
15342;SDS011;7771;48.478;8.936;2024-01-15T01:55:35;17.03;;;8.50;;
15342;SDS011;7771;48.478;8.936;2024-01-15T01:58:03;17.77;;;8.63;;
15342;SDS011;7771;48.478;8.936;2024-01-15T02:00:30;16.93;;;8.80;;
15342;SDS011;7771;48.478;8.936;2024-01-15T02:02:58;16.87;;;8.00;;
15342;SDS011;7771;48.478;8.936;2024-01-15T02:05:27;19.47;;;8.40;;
15342;SDS011;7771;48.478;8.936;2024-01-15T02:07:53;16.07;;;7.83;;
15342;SDS011;7771;48.478;8.936;2024-01-15T02:10:21;18.27;;;9.13;;
15342;SDS011;7771;48.478;8.936;2024-01-15T02:12:49;19.23;;;8.93;;
15342;SDS011;7771;48.478;8.936;2024-01-15T02:15:15;15.57;;;9.03;;
15342;SDS011;7771;48.478;8.936;2024-01-15T02:18:05;22.07;;;8.87;;
15342;SDS011;7771;48.478;8.936;2024-01-15T02:20:31;18.37;;;8.83;;
15342;SDS011;7771;48.478;8.936;2024-01-15T02:23:03;20.93;;;9.10;;
15342;SDS011;7771;48.478;8.936;2024-01-15T02:25:28;19.93;;;8.97;;
15342;SDS011;7771;48.478;8.936;2024-01-15T02:27:55;19.93;;;8.10;;
15342;SDS011;7771;48.478;8.936;2024-01-15T02:30:23;18.70;;;8.43;;
15342;SDS011;7771;48.478;8.936;2024-01-15T02:32:49;19.00;;;9.47;;
15342;SDS011;7771;48.478;8.936;2024-01-15T02:35:17;18.00;;;8.50;;
15342;SDS011;7771;48.478;8.936;2024-01-15T02:37:44;19.20;;;7.70;;
15342;SDS011;7771;48.478;8.936;2024-01-15T02:40:11;20.40;;;8.37;;
15342;SDS011;7771;48.478;8.936;2024-01-15T02:42:38;20.17;;;8.83;;
15342;SDS011;7771;48.478;8.936;2024-01-15T02:45:04;15.87;;;8.00;;
15342;SDS011;7771;48.478;8.936;2024-01-15T02:47:31;17.77;;;8.53;;
15342;SDS011;7771;48.478;8.936;2024-01-15T02:49:58;21.50;;;9.50;;
15342;SDS011;7771;48.478;8.936;2024-01-15T02:52:26;19.47;;;8.80;;
15342;SDS011;7771;48.478;8.936;2024-01-15T02:54:53;20.27;;;8.87;;
15342;SDS011;7771;48.478;8.936;2024-01-15T02:57:22;21.53;;;8.80;;
15342;SDS011;7771;48.478;8.936;2024-01-15T02:59:48;19.17;;;9.30;;
15342;SDS011;7771;48.478;8.936;2024-01-15T03:02:16;18.97;;;9.43;;
15342;SDS011;7771;48.478;8.936;2024-01-15T03:04:44;18.07;;;7.50;;
15342;SDS011;7771;48.478;8.936;2024-01-15T03:07:11;18.20;;;8.60;;
15342;SDS011;7771;48.478;8.936;2024-01-15T03:09:38;16.63;;;8.07;;
15342;SDS011;7771;48.478;8.936;2024-01-15T03:12:05;16.93;;;8.50;;
15342;SDS011;7771;48.478;8.936;2024-01-15T03:14:32;18.07;;;9.40;;
15342;SDS011;7771;48.478;8.936;2024-01-15T03:17:00;19.30;;;9.40;;
15342;SDS011;7771;48.478;8.936;2024-01-15T03:19:27;21.67;;;8.90;;
15342;SDS011;7771;48.478;8.936;2024-01-15T03:21:54;20.87;;;8.97;;
15342;SDS011;7771;48.478;8.936;2024-01-15T03:24:22;20.07;;;8.87;;
15342;SDS011;7771;48.478;8.936;2024-01-15T03:26:49;19.73;;;8.63;;
15342;SDS011;7771;48.478;8.936;2024-01-15T03:29:17;22.60;;;9.23;;
15342;SDS011;7771;48.478;8.936;2024-01-15T03:31:43;17.27;;;8.83;;
15342;SDS011;7771;48.478;8.936;2024-01-15T03:34:11;22.93;;;9.30;;
15342;SDS011;7771;48.478;8.936;2024-01-15T03:36:38;19.63;;;8.63;;
15342;SDS011;7771;48.478;8.936;2024-01-15T03:39:05;15.60;;;8.30;;
15342;SDS011;7771;48.478;8.936;2024-01-15T03:41:32;20.40;;;8.70;;
15342;SDS011;7771;48.478;8.936;2024-01-15T03:43:59;16.23;;;7.77;;
15342;SDS011;7771;48.478;8.936;2024-01-15T03:46:25;17.93;;;8.27;;
15342;SDS011;7771;48.478;8.936;2024-01-15T03:48:53;21.50;;;8.67;;
15342;SDS011;7771;48.478;8.936;2024-01-15T03:51:20;19.77;;;8.77;;
15342;SDS011;7771;48.478;8.936;2024-01-15T03:53:47;21.07;;;9.10;;
15342;SDS011;7771;48.478;8.936;2024-01-15T03:56:13;18.47;;;8.63;;
15342;SDS011;7771;48.478;8.936;2024-01-15T03:58:41;22.07;;;9.07;;
15342;SDS011;7771;48.478;8.936;2024-01-15T04:01:11;17.40;;;8.43;;
15342;SDS011;7771;48.478;8.936;2024-01-15T04:03:40;19.47;;;8.87;;
15342;SDS011;7771;48.478;8.936;2024-01-15T04:06:06;20.60;;;8.77;;
15342;SDS011;7771;48.478;8.936;2024-01-15T04:08:33;19.67;;;8.73;;
15342;SDS011;7771;48.478;8.936;2024-01-15T04:11:00;16.97;;;8.53;;
15342;SDS011;7771;48.478;8.936;2024-01-15T04:13:27;21.70;;;9.30;;
15342;SDS011;7771;48.478;8.936;2024-01-15T04:15:54;22.33;;;9.53;;
15342;SDS011;7771;48.478;8.936;2024-01-15T04:18:22;17.60;;;8.23;;
15342;SDS011;7771;48.478;8.936;2024-01-15T04:20:48;15.43;;;8.23;;
15342;SDS011;7771;48.478;8.936;2024-01-15T04:23:16;18.10;;;9.17;;
15342;SDS011;7771;48.478;8.936;2024-01-15T04:25:44;17.83;;;8.33;;
15342;SDS011;7771;48.478;8.936;2024-01-15T04:28:11;18.03;;;8.90;;
15342;SDS011;7771;48.478;8.936;2024-01-15T04:30:38;17.47;;;8.80;;
15342;SDS011;7771;48.478;8.936;2024-01-15T04:33:05;18.80;;;8.87;;
15342;SDS011;7771;48.478;8.936;2024-01-15T04:35:33;20.47;;;8.60;;
15342;SDS011;7771;48.478;8.936;2024-01-15T04:38:00;19.53;;;9.20;;
15342;SDS011;7771;48.478;8.936;2024-01-15T04:40:28;22.93;;;9.77;;
15342;SDS011;7771;48.478;8.936;2024-01-15T04:42:56;19.33;;;9.50;;
15342;SDS011;7771;48.478;8.936;2024-01-15T04:45:24;20.83;;;9.03;;
15342;SDS011;7771;48.478;8.936;2024-01-15T04:47:51;25.27;;;10.73;;
15342;SDS011;7771;48.478;8.936;2024-01-15T04:50:17;22.13;;;9.70;;
15342;SDS011;7771;48.478;8.936;2024-01-15T04:52:45;20.70;;;10.03;;
15342;SDS011;7771;48.478;8.936;2024-01-15T04:55:12;19.80;;;10.17;;
15342;SDS011;7771;48.478;8.936;2024-01-15T04:57:39;19.20;;;9.90;;
15342;SDS011;7771;48.478;8.936;2024-01-15T05:00:08;17.50;;;8.87;;
15342;SDS011;7771;48.478;8.936;2024-01-15T05:02:35;22.47;;;9.57;;
15342;SDS011;7771;48.478;8.936;2024-01-15T05:05:02;20.10;;;9.87;;
15342;SDS011;7771;48.478;8.936;2024-01-15T05:07:29;23.60;;;9.97;;
15342;SDS011;7771;48.478;8.936;2024-01-15T05:09:56;17.23;;;9.13;;
15342;SDS011;7771;48.478;8.936;2024-01-15T05:12:23;24.53;;;10.23;;
15342;SDS011;7771;48.478;8.936;2024-01-15T05:14:50;21.00;;;10.63;;
15342;SDS011;7771;48.478;8.936;2024-01-15T05:17:17;21.40;;;10.40;;
15342;SDS011;7771;48.478;8.936;2024-01-15T05:19:44;22.67;;;10.00;;
15342;SDS011;7771;48.478;8.936;2024-01-15T05:22:10;21.10;;;8.47;;
15342;SDS011;7771;48.478;8.936;2024-01-15T05:24:38;19.17;;;9.93;;
15342;SDS011;7771;48.478;8.936;2024-01-15T05:27:06;20.10;;;9.17;;
15342;SDS011;7771;48.478;8.936;2024-01-15T05:29:32;21.87;;;11.57;;
15342;SDS011;7771;48.478;8.936;2024-01-15T05:32:00;22.93;;;10.23;;
15342;SDS011;7771;48.478;8.936;2024-01-15T05:34:27;21.73;;;9.40;;
15342;SDS011;7771;48.478;8.936;2024-01-15T05:36:54;17.30;;;9.70;;
15342;SDS011;7771;48.478;8.936;2024-01-15T05:39:20;18.57;;;9.20;;
15342;SDS011;7771;48.478;8.936;2024-01-15T05:41:48;16.57;;;8.50;;
15342;SDS011;7771;48.478;8.936;2024-01-15T05:44:16;18.00;;;9.20;;
15342;SDS011;7771;48.478;8.936;2024-01-15T05:46:42;19.87;;;9.67;;
15342;SDS011;7771;48.478;8.936;2024-01-15T05:49:11;19.63;;;10.03;;
15342;SDS011;7771;48.478;8.936;2024-01-15T05:51:38;17.73;;;9.33;;
15342;SDS011;7771;48.478;8.936;2024-01-15T05:54:05;19.70;;;9.43;;
15342;SDS011;7771;48.478;8.936;2024-01-15T05:56:32;18.10;;;9.50;;
15342;SDS011;7771;48.478;8.936;2024-01-15T05:59:01;21.53;;;10.77;;
15342;SDS011;7771;48.478;8.936;2024-01-15T06:01:29;19.27;;;9.97;;
15342;SDS011;7771;48.478;8.936;2024-01-15T06:03:55;20.30;;;10.00;;
15342;SDS011;7771;48.478;8.936;2024-01-15T06:06:23;23.57;;;9.90;;
15342;SDS011;7771;48.478;8.936;2024-01-15T06:08:50;21.37;;;10.43;;
15342;SDS011;7771;48.478;8.936;2024-01-15T06:11:19;19.70;;;10.10;;
15342;SDS011;7771;48.478;8.936;2024-01-15T06:13:45;17.03;;;9.60;;
15342;SDS011;7771;48.478;8.936;2024-01-15T06:16:13;19.47;;;10.13;;
15342;SDS011;7771;48.478;8.936;2024-01-15T06:18:41;23.40;;;11.00;;
15342;SDS011;7771;48.478;8.936;2024-01-15T06:21:07;21.77;;;10.13;;
15342;SDS011;7771;48.478;8.936;2024-01-15T06:23:34;23.37;;;11.00;;
15342;SDS011;7771;48.478;8.936;2024-01-15T06:26:01;27.33;;;10.73;;
15342;SDS011;7771;48.478;8.936;2024-01-15T06:28:29;22.33;;;10.40;;
15342;SDS011;7771;48.478;8.936;2024-01-15T06:30:57;19.57;;;9.73;;
15342;SDS011;7771;48.478;8.936;2024-01-15T06:33:25;19.23;;;10.00;;
15342;SDS011;7771;48.478;8.936;2024-01-15T06:35:52;18.87;;;8.90;;
15342;SDS011;7771;48.478;8.936;2024-01-15T06:38:19;18.40;;;10.00;;
15342;SDS011;7771;48.478;8.936;2024-01-15T06:40:46;17.97;;;10.33;;
15342;SDS011;7771;48.478;8.936;2024-01-15T06:43:14;19.10;;;9.57;;
15342;SDS011;7771;48.478;8.936;2024-01-15T06:45:41;20.97;;;9.97;;
15342;SDS011;7771;48.478;8.936;2024-01-15T06:48:08;16.20;;;8.93;;
15342;SDS011;7771;48.478;8.936;2024-01-15T06:50:36;16.47;;;9.30;;
15342;SDS011;7771;48.478;8.936;2024-01-15T06:53:03;15.70;;;8.77;;
15342;SDS011;7771;48.478;8.936;2024-01-15T06:55:30;21.73;;;10.17;;
15342;SDS011;7771;48.478;8.936;2024-01-15T06:57:58;17.13;;;8.30;;
15342;SDS011;7771;48.478;8.936;2024-01-15T07:00:25;17.63;;;8.30;;
15342;SDS011;7771;48.478;8.936;2024-01-15T07:02:52;17.23;;;8.47;;
15342;SDS011;7771;48.478;8.936;2024-01-15T07:05:21;17.30;;;8.50;;
15342;SDS011;7771;48.478;8.936;2024-01-15T07:07:49;16.60;;;8.60;;
15342;SDS011;7771;48.478;8.936;2024-01-15T07:10:15;21.37;;;9.70;;
15342;SDS011;7771;48.478;8.936;2024-01-15T07:12:43;20.73;;;11.33;;
15342;SDS011;7771;48.478;8.936;2024-01-15T07:15:11;20.40;;;10.33;;
15342;SDS011;7771;48.478;8.936;2024-01-15T07:17:37;15.13;;;7.87;;
15342;SDS011;7771;48.478;8.936;2024-01-15T07:20:06;17.73;;;7.77;;
15342;SDS011;7771;48.478;8.936;2024-01-15T07:22:33;20.10;;;9.83;;
15342;SDS011;7771;48.478;8.936;2024-01-15T07:24:59;17.13;;;8.23;;
15342;SDS011;7771;48.478;8.936;2024-01-15T07:27:27;16.43;;;7.93;;
15342;SDS011;7771;48.478;8.936;2024-01-15T07:29:55;16.03;;;8.27;;
15342;SDS011;7771;48.478;8.936;2024-01-15T07:32:23;15.83;;;8.50;;
15342;SDS011;7771;48.478;8.936;2024-01-15T07:34:50;17.40;;;8.73;;
15342;SDS011;7771;48.478;8.936;2024-01-15T07:37:17;18.70;;;8.60;;
15342;SDS011;7771;48.478;8.936;2024-01-15T07:39:45;14.20;;;7.23;;
15342;SDS011;7771;48.478;8.936;2024-01-15T07:42:13;14.73;;;6.47;;
15342;SDS011;7771;48.478;8.936;2024-01-15T07:44:41;34.10;;;16.00;;
15342;SDS011;7771;48.478;8.936;2024-01-15T07:47:07;13.07;;;6.93;;
15342;SDS011;7771;48.478;8.936;2024-01-15T07:49:34;13.80;;;6.97;;
15342;SDS011;7771;48.478;8.936;2024-01-15T07:52:01;13.07;;;6.43;;
15342;SDS011;7771;48.478;8.936;2024-01-15T07:54:30;12.53;;;6.03;;
15342;SDS011;7771;48.478;8.936;2024-01-15T07:56:58;13.87;;;6.73;;
15342;SDS011;7771;48.478;8.936;2024-01-15T07:59:25;11.57;;;6.50;;
15342;SDS011;7771;48.478;8.936;2024-01-15T08:01:53;13.53;;;6.20;;
15342;SDS011;7771;48.478;8.936;2024-01-15T08:04:21;11.23;;;5.77;;
15342;SDS011;7771;48.478;8.936;2024-01-15T08:06:48;12.53;;;6.03;;
15342;SDS011;7771;48.478;8.936;2024-01-15T08:09:16;12.40;;;6.23;;
15342;SDS011;7771;48.478;8.936;2024-01-15T08:11:42;11.33;;;5.73;;
15342;SDS011;7771;48.478;8.936;2024-01-15T08:14:11;9.60;;;5.70;;
15342;SDS011;7771;48.478;8.936;2024-01-15T08:16:38;10.97;;;5.53;;
15342;SDS011;7771;48.478;8.936;2024-01-15T08:19:06;8.60;;;5.20;;
15342;SDS011;7771;48.478;8.936;2024-01-15T08:21:32;9.17;;;5.13;;
15342;SDS011;7771;48.478;8.936;2024-01-15T08:24:00;9.87;;;5.73;;
15342;SDS011;7771;48.478;8.936;2024-01-15T08:26:28;12.43;;;6.70;;
15342;SDS011;7771;48.478;8.936;2024-01-15T08:28:54;12.43;;;7.33;;
15342;SDS011;7771;48.478;8.936;2024-01-15T08:31:23;10.87;;;5.90;;
15342;SDS011;7771;48.478;8.936;2024-01-15T08:33:51;9.47;;;4.47;;
15342;SDS011;7771;48.478;8.936;2024-01-15T08:36:19;8.17;;;4.37;;
15342;SDS011;7771;48.478;8.936;2024-01-15T08:38:46;6.50;;;4.27;;
15342;SDS011;7771;48.478;8.936;2024-01-15T08:41:14;7.23;;;4.37;;
15342;SDS011;7771;48.478;8.936;2024-01-15T08:43:41;9.50;;;5.23;;
15342;SDS011;7771;48.478;8.936;2024-01-15T08:46:07;7.57;;;4.53;;
15342;SDS011;7771;48.478;8.936;2024-01-15T08:48:35;7.73;;;4.13;;
15342;SDS011;7771;48.478;8.936;2024-01-15T08:51:03;6.83;;;4.23;;
15342;SDS011;7771;48.478;8.936;2024-01-15T08:53:31;8.87;;;4.73;;
15342;SDS011;7771;48.478;8.936;2024-01-15T08:55:59;6.83;;;4.43;;
15342;SDS011;7771;48.478;8.936;2024-01-15T08:58:25;11.00;;;4.57;;
15342;SDS011;7771;48.478;8.936;2024-01-15T09:00:53;8.07;;;4.97;;
15342;SDS011;7771;48.478;8.936;2024-01-15T09:03:19;9.37;;;4.50;;
15342;SDS011;7771;48.478;8.936;2024-01-15T09:05:47;8.97;;;4.90;;
15342;SDS011;7771;48.478;8.936;2024-01-15T09:08:14;10.33;;;5.23;;
15342;SDS011;7771;48.478;8.936;2024-01-15T09:10:41;8.33;;;5.30;;
15342;SDS011;7771;48.478;8.936;2024-01-15T09:13:08;8.03;;;4.93;;
15342;SDS011;7771;48.478;8.936;2024-01-15T09:15:36;11.67;;;5.40;;
15342;SDS011;7771;48.478;8.936;2024-01-15T09:18:04;10.00;;;5.03;;
15342;SDS011;7771;48.478;8.936;2024-01-15T09:20:31;9.10;;;4.87;;
15342;SDS011;7771;48.478;8.936;2024-01-15T09:22:59;10.87;;;5.40;;
15342;SDS011;7771;48.478;8.936;2024-01-15T09:25:26;11.03;;;5.87;;
15342;SDS011;7771;48.478;8.936;2024-01-15T09:27:54;9.10;;;5.17;;
15342;SDS011;7771;48.478;8.936;2024-01-15T09:30:21;9.03;;;4.87;;
15342;SDS011;7771;48.478;8.936;2024-01-15T09:32:48;8.80;;;4.30;;
15342;SDS011;7771;48.478;8.936;2024-01-15T09:35:16;7.60;;;4.17;;
15342;SDS011;7771;48.478;8.936;2024-01-15T09:37:42;6.23;;;4.00;;
15342;SDS011;7771;48.478;8.936;2024-01-15T09:40:12;6.13;;;4.10;;
15342;SDS011;7771;48.478;8.936;2024-01-15T09:42:36;8.37;;;3.83;;
15342;SDS011;7771;48.478;8.936;2024-01-15T09:45:04;8.93;;;4.10;;
15342;SDS011;7771;48.478;8.936;2024-01-15T09:47:32;6.83;;;4.03;;
15342;SDS011;7771;48.478;8.936;2024-01-15T09:50:01;6.13;;;3.43;;
15342;SDS011;7771;48.478;8.936;2024-01-15T09:52:30;6.93;;;3.10;;
15342;SDS011;7771;48.478;8.936;2024-01-15T09:54:57;5.80;;;3.20;;
15342;SDS011;7771;48.478;8.936;2024-01-15T09:57:24;6.07;;;3.20;;
15342;SDS011;7771;48.478;8.936;2024-01-15T09:59:51;7.60;;;3.87;;
15342;SDS011;7771;48.478;8.936;2024-01-15T10:02:19;6.60;;;3.40;;
15342;SDS011;7771;48.478;8.936;2024-01-15T10:04:47;5.03;;;3.07;;
15342;SDS011;7771;48.478;8.936;2024-01-15T10:07:15;5.90;;;2.77;;
15342;SDS011;7771;48.478;8.936;2024-01-15T10:09:41;5.90;;;2.90;;
15342;SDS011;7771;48.478;8.936;2024-01-15T10:12:07;4.67;;;3.03;;
15342;SDS011;7771;48.478;8.936;2024-01-15T10:14:36;3.17;;;2.87;;
15342;SDS011;7771;48.478;8.936;2024-01-15T10:17:13;5.60;;;3.20;;
15342;SDS011;7771;48.478;8.936;2024-01-15T10:19:41;5.23;;;3.20;;
15342;SDS011;7771;48.478;8.936;2024-01-15T10:22:09;3.37;;;2.73;;
15342;SDS011;7771;48.478;8.936;2024-01-15T10:24:37;7.07;;;2.77;;
15342;SDS011;7771;48.478;8.936;2024-01-15T10:27:05;5.07;;;3.30;;
15342;SDS011;7771;48.478;8.936;2024-01-15T10:29:31;5.97;;;2.93;;
15342;SDS011;7771;48.478;8.936;2024-01-15T10:32:00;5.33;;;2.70;;
15342;SDS011;7771;48.478;8.936;2024-01-15T10:34:28;10.67;;;5.00;;
15342;SDS011;7771;48.478;8.936;2024-01-15T10:36:54;13.73;;;9.63;;
15342;SDS011;7771;48.478;8.936;2024-01-15T10:39:22;4.63;;;2.70;;
15342;SDS011;7771;48.478;8.936;2024-01-15T10:41:49;5.63;;;3.27;;
15342;SDS011;7771;48.478;8.936;2024-01-15T10:44:17;7.93;;;5.67;;
15342;SDS011;7771;48.478;8.936;2024-01-15T10:46:44;15.70;;;13.07;;
15342;SDS011;7771;48.478;8.936;2024-01-15T10:49:12;10.53;;;6.33;;
15342;SDS011;7771;48.478;8.936;2024-01-15T10:51:41;5.93;;;3.37;;
15342;SDS011;7771;48.478;8.936;2024-01-15T10:54:11;13.33;;;9.03;;
15342;SDS011;7771;48.478;8.936;2024-01-15T10:56:38;9.20;;;4.40;;
15342;SDS011;7771;48.478;8.936;2024-01-15T10:59:06;17.53;;;10.27;;
15342;SDS011;7771;48.478;8.936;2024-01-15T11:01:34;5.70;;;3.60;;
15342;SDS011;7771;48.478;8.936;2024-01-15T11:04:01;7.40;;;4.30;;
15342;SDS011;7771;48.478;8.936;2024-01-15T11:06:28;6.80;;;3.67;;
15342;SDS011;7771;48.478;8.936;2024-01-15T11:08:55;4.73;;;3.23;;
15342;SDS011;7771;48.478;8.936;2024-01-15T11:11:22;12.07;;;7.10;;
15342;SDS011;7771;48.478;8.936;2024-01-15T11:13:50;7.47;;;3.60;;
15342;SDS011;7771;48.478;8.936;2024-01-15T11:16:18;5.53;;;3.93;;
15342;SDS011;7771;48.478;8.936;2024-01-15T11:21:19;6.50;;;3.80;;
15342;SDS011;7771;48.478;8.936;2024-01-15T11:23:48;6.30;;;3.60;;
15342;SDS011;7771;48.478;8.936;2024-01-15T11:28:55;8.40;;;4.70;;
15342;SDS011;7771;48.478;8.936;2024-01-15T11:33:55;6.40;;;4.10;;
15342;SDS011;7771;48.478;8.936;2024-01-15T11:39:42;7.30;;;4.47;;
15342;SDS011;7771;48.478;8.936;2024-01-15T11:42:10;7.47;;;4.57;;
15342;SDS011;7771;48.478;8.936;2024-01-15T11:44:38;6.80;;;4.00;;
15342;SDS011;7771;48.478;8.936;2024-01-15T11:47:06;6.10;;;3.47;;
15342;SDS011;7771;48.478;8.936;2024-01-15T11:52:11;5.43;;;3.67;;
15342;SDS011;7771;48.478;8.936;2024-01-15T11:54:38;6.30;;;3.80;;
15342;SDS011;7771;48.478;8.936;2024-01-15T11:57:09;5.73;;;4.07;;
15342;SDS011;7771;48.478;8.936;2024-01-15T11:59:34;7.17;;;4.77;;
15342;SDS011;7771;48.478;8.936;2024-01-15T12:02:00;8.03;;;5.10;;
15342;SDS011;7771;48.478;8.936;2024-01-15T12:04:28;6.33;;;4.00;;
15342;SDS011;7771;48.478;8.936;2024-01-15T12:06:56;6.97;;;3.73;;
15342;SDS011;7771;48.478;8.936;2024-01-15T12:09:22;6.20;;;4.33;;
15342;SDS011;7771;48.478;8.936;2024-01-15T12:11:51;5.90;;;3.93;;
15342;SDS011;7771;48.478;8.936;2024-01-15T12:14:18;5.80;;;4.00;;
15342;SDS011;7771;48.478;8.936;2024-01-15T12:16:44;6.50;;;3.67;;
15342;SDS011;7771;48.478;8.936;2024-01-15T12:19:12;7.63;;;4.20;;
15342;SDS011;7771;48.478;8.936;2024-01-15T12:21:40;6.17;;;3.93;;
15342;SDS011;7771;48.478;8.936;2024-01-15T12:24:07;7.10;;;4.40;;
15342;SDS011;7771;48.478;8.936;2024-01-15T12:26:35;9.50;;;4.83;;
15342;SDS011;7771;48.478;8.936;2024-01-15T12:29:06;8.63;;;4.60;;
15342;SDS011;7771;48.478;8.936;2024-01-15T12:31:30;10.50;;;4.30;;
15342;SDS011;7771;48.478;8.936;2024-01-15T12:33:57;9.17;;;4.53;;
15342;SDS011;7771;48.478;8.936;2024-01-15T12:36:24;8.03;;;4.27;;
15342;SDS011;7771;48.478;8.936;2024-01-15T12:38:53;7.83;;;4.90;;
15342;SDS011;7771;48.478;8.936;2024-01-15T12:41:19;9.70;;;5.97;;
15342;SDS011;7771;48.478;8.936;2024-01-15T12:43:47;8.40;;;4.90;;
15342;SDS011;7771;48.478;8.936;2024-01-15T12:46:13;7.73;;;5.13;;
15342;SDS011;7771;48.478;8.936;2024-01-15T12:48:42;9.73;;;5.20;;
15342;SDS011;7771;48.478;8.936;2024-01-15T12:51:10;9.00;;;5.50;;
15342;SDS011;7771;48.478;8.936;2024-01-15T12:53:37;9.17;;;4.80;;
15342;SDS011;7771;48.478;8.936;2024-01-15T12:56:05;9.07;;;5.00;;
15342;SDS011;7771;48.478;8.936;2024-01-15T12:58:32;8.97;;;5.37;;
15342;SDS011;7771;48.478;8.936;2024-01-15T13:00:59;10.43;;;5.80;;
15342;SDS011;7771;48.478;8.936;2024-01-15T13:03:27;9.63;;;5.37;;
15342;SDS011;7771;48.478;8.936;2024-01-15T13:05:56;12.87;;;6.53;;
15342;SDS011;7771;48.478;8.936;2024-01-15T13:08:24;11.30;;;5.73;;
15342;SDS011;7771;48.478;8.936;2024-01-15T13:10:52;10.37;;;5.97;;
15342;SDS011;7771;48.478;8.936;2024-01-15T13:13:18;11.07;;;5.87;;
15342;SDS011;7771;48.478;8.936;2024-01-15T13:15:46;10.87;;;5.87;;
15342;SDS011;7771;48.478;8.936;2024-01-15T13:18:14;12.13;;;6.37;;
15342;SDS011;7771;48.478;8.936;2024-01-15T13:20:42;8.90;;;5.57;;
15342;SDS011;7771;48.478;8.936;2024-01-15T13:23:09;11.57;;;6.07;;
15342;SDS011;7771;48.478;8.936;2024-01-15T13:25:36;12.13;;;5.83;;
15342;SDS011;7771;48.478;8.936;2024-01-15T13:28:03;9.87;;;6.03;;
15342;SDS011;7771;48.478;8.936;2024-01-15T13:30:30;9.40;;;5.37;;
15342;SDS011;7771;48.478;8.936;2024-01-15T13:32:58;11.77;;;5.90;;
15342;SDS011;7771;48.478;8.936;2024-01-15T13:35:26;10.90;;;5.90;;
15342;SDS011;7771;48.478;8.936;2024-01-15T13:37:53;12.40;;;6.77;;
15342;SDS011;7771;48.478;8.936;2024-01-15T13:40:20;11.43;;;5.93;;
15342;SDS011;7771;48.478;8.936;2024-01-15T13:42:47;11.40;;;6.33;;
15342;SDS011;7771;48.478;8.936;2024-01-15T13:45:14;10.73;;;5.83;;
15342;SDS011;7771;48.478;8.936;2024-01-15T13:47:42;8.77;;;5.80;;
15342;SDS011;7771;48.478;8.936;2024-01-15T13:50:10;10.73;;;6.03;;
15342;SDS011;7771;48.478;8.936;2024-01-15T13:52:37;11.13;;;6.10;;
15342;SDS011;7771;48.478;8.936;2024-01-15T13:55:05;9.00;;;5.63;;
15342;SDS011;7771;48.478;8.936;2024-01-15T13:57:32;10.27;;;5.33;;
15342;SDS011;7771;48.478;8.936;2024-01-15T14:00:00;11.80;;;6.10;;
15342;SDS011;7771;48.478;8.936;2024-01-15T14:02:27;10.67;;;5.90;;
15342;SDS011;7771;48.478;8.936;2024-01-15T14:04:55;7.80;;;4.90;;
15342;SDS011;7771;48.478;8.936;2024-01-15T14:07:23;8.80;;;5.47;;
15342;SDS011;7771;48.478;8.936;2024-01-15T14:09:50;9.00;;;5.50;;
15342;SDS011;7771;48.478;8.936;2024-01-15T14:12:17;10.07;;;6.10;;
15342;SDS011;7771;48.478;8.936;2024-01-15T14:14:44;10.10;;;5.70;;
15342;SDS011;7771;48.478;8.936;2024-01-15T14:17:11;8.23;;;5.43;;
15342;SDS011;7771;48.478;8.936;2024-01-15T14:19:39;11.00;;;5.37;;
15342;SDS011;7771;48.478;8.936;2024-01-15T14:22:06;12.83;;;6.10;;
15342;SDS011;7771;48.478;8.936;2024-01-15T14:24:34;10.10;;;5.43;;
15342;SDS011;7771;48.478;8.936;2024-01-15T14:27:01;9.33;;;5.23;;
15342;SDS011;7771;48.478;8.936;2024-01-15T14:29:30;9.87;;;5.10;;
15342;SDS011;7771;48.478;8.936;2024-01-15T14:31:57;9.77;;;5.67;;
15342;SDS011;7771;48.478;8.936;2024-01-15T14:34:25;10.20;;;5.73;;
15342;SDS011;7771;48.478;8.936;2024-01-15T14:36:54;14.83;;;6.37;;
15342;SDS011;7771;48.478;8.936;2024-01-15T14:39:22;9.97;;;6.40;;
15342;SDS011;7771;48.478;8.936;2024-01-15T14:41:50;11.30;;;5.83;;
15342;SDS011;7771;48.478;8.936;2024-01-15T14:44:16;12.10;;;5.73;;
15342;SDS011;7771;48.478;8.936;2024-01-15T14:46:44;9.73;;;5.90;;
15342;SDS011;7771;48.478;8.936;2024-01-15T14:49:11;10.10;;;5.63;;
15342;SDS011;7771;48.478;8.936;2024-01-15T14:51:39;11.00;;;6.40;;
15342;SDS011;7771;48.478;8.936;2024-01-15T14:54:06;10.90;;;6.30;;
15342;SDS011;7771;48.478;8.936;2024-01-15T14:59:20;9.60;;;5.50;;
15342;SDS011;7771;48.478;8.936;2024-01-15T15:01:46;8.50;;;6.13;;
15342;SDS011;7771;48.478;8.936;2024-01-15T15:04:13;10.80;;;6.00;;
15342;SDS011;7771;48.478;8.936;2024-01-15T15:06:40;7.60;;;5.27;;